sensor_id;sensor_type;location;lat;lon;timestamp;temperature;humidity
71082;SHT31;58740;50.672;18.690;2024-02-21T00:00:57;5.91;84.20
71082;SHT31;58740;50.672;18.690;2024-02-21T00:03:45;5.91;84.21
71082;SHT31;58740;50.672;18.690;2024-02-21T00:06:18;5.90;84.25
71082;SHT31;58740;50.672;18.690;2024-02-21T00:08:51;5.89;84.29
71082;SHT31;58740;50.672;18.690;2024-02-21T00:11:25;5.89;84.30
71082;SHT31;58740;50.672;18.690;2024-02-21T00:13:58;5.88;84.31
71082;SHT31;58740;50.672;18.690;2024-02-21T00:16:31;5.88;84.32
71082;SHT31;58740;50.672;18.690;2024-02-21T00:19:05;5.88;84.38
71082;SHT31;58740;50.672;18.690;2024-02-21T00:21:38;5.86;84.37
71082;SHT31;58740;50.672;18.690;2024-02-21T00:24:11;5.86;84.42
71082;SHT31;58740;50.672;18.690;2024-02-21T00:26:45;5.84;84.45
71082;SHT31;58740;50.672;18.690;2024-02-21T00:29:18;5.84;84.42
71082;SHT31;58740;50.672;18.690;2024-02-21T00:31:51;5.82;84.44
71082;SHT31;58740;50.672;18.690;2024-02-21T00:34:24;5.81;84.48
71082;SHT31;58740;50.672;18.690;2024-02-21T00:36:58;5.81;84.50
71082;SHT31;58740;50.672;18.690;2024-02-21T00:39:31;5.81;84.50
71082;SHT31;58740;50.672;18.690;2024-02-21T00:42:04;5.82;84.47
71082;SHT31;58740;50.672;18.690;2024-02-21T00:44:38;5.82;84.47
71082;SHT31;58740;50.672;18.690;2024-02-21T00:47:11;5.82;84.45
71082;SHT31;58740;50.672;18.690;2024-02-21T00:49:45;5.82;84.48
71082;SHT31;58740;50.672;18.690;2024-02-21T00:52:18;5.82;84.50
71082;SHT31;58740;50.672;18.690;2024-02-21T00:54:51;5.81;84.50
71082;SHT31;58740;50.672;18.690;2024-02-21T00:57:24;5.80;84.48
71082;SHT31;58740;50.672;18.690;2024-02-21T00:59:57;5.78;84.51
71082;SHT31;58740;50.672;18.690;2024-02-21T01:02:31;5.78;84.50
71082;SHT31;58740;50.672;18.690;2024-02-21T01:05:04;5.76;84.55
71082;SHT31;58740;50.672;18.690;2024-02-21T01:07:38;5.76;84.58
71082;SHT31;58740;50.672;18.690;2024-02-21T01:10:12;5.75;84.57
71082;SHT31;58740;50.672;18.690;2024-02-21T01:12:45;5.73;84.59
71082;SHT31;58740;50.672;18.690;2024-02-21T01:15:19;5.74;84.60
71082;SHT31;58740;50.672;18.690;2024-02-21T01:17:52;5.75;84.57
71082;SHT31;58740;50.672;18.690;2024-02-21T01:20:26;5.72;84.56
71082;SHT31;58740;50.672;18.690;2024-02-21T01:22:59;5.73;84.60
71082;SHT31;58740;50.672;18.690;2024-02-21T01:25:32;5.71;84.56
71082;SHT31;58740;50.672;18.690;2024-02-21T01:28:06;5.71;84.53
71082;SHT31;58740;50.672;18.690;2024-02-21T01:30:39;5.70;84.51
71082;SHT31;58740;50.672;18.690;2024-02-21T01:33:12;5.67;84.47
71082;SHT31;58740;50.672;18.690;2024-02-21T01:35:45;5.65;84.50
71082;SHT31;58740;50.672;18.690;2024-02-21T01:38:19;5.65;84.53
71082;SHT31;58740;50.672;18.690;2024-02-21T01:40:52;5.64;84.52
71082;SHT31;58740;50.672;18.690;2024-02-21T01:43:25;5.64;84.57
71082;SHT31;58740;50.672;18.690;2024-02-21T01:45:59;5.64;84.60
71082;SHT31;58740;50.672;18.690;2024-02-21T01:48:33;5.63;84.61
71082;SHT31;58740;50.672;18.690;2024-02-21T01:51:07;5.64;84.69
71082;SHT31;58740;50.672;18.690;2024-02-21T01:53:42;5.65;84.69
71082;SHT31;58740;50.672;18.690;2024-02-21T01:56:16;5.64;84.70
71082;SHT31;58740;50.672;18.690;2024-02-21T01:58:50;5.64;84.70
71082;SHT31;58740;50.672;18.690;2024-02-21T02:01:25;5.64;84.73
71082;SHT31;58740;50.672;18.690;2024-02-21T02:04:00;5.65;84.78
71082;SHT31;58740;50.672;18.690;2024-02-21T02:06:34;5.64;84.77
71082;SHT31;58740;50.672;18.690;2024-02-21T02:09:07;5.66;84.78
71082;SHT31;58740;50.672;18.690;2024-02-21T02:11:41;5.66;84.79
71082;SHT31;58740;50.672;18.690;2024-02-21T02:14:15;5.66;84.73
71082;SHT31;58740;50.672;18.690;2024-02-21T02:16:48;5.67;84.70
71082;SHT31;58740;50.672;18.690;2024-02-21T02:19:21;5.66;84.72
71082;SHT31;58740;50.672;18.690;2024-02-21T02:21:56;5.67;84.70
71082;SHT31;58740;50.672;18.690;2024-02-21T02:24:39;5.66;84.74
71082;SHT31;58740;50.672;18.690;2024-02-21T02:27:13;5.66;84.79
71082;SHT31;58740;50.672;18.690;2024-02-21T02:29:46;5.66;84.76
71082;SHT31;58740;50.672;18.690;2024-02-21T02:32:20;5.67;84.80
71082;SHT31;58740;50.672;18.690;2024-02-21T02:34:54;5.66;84.80
71082;SHT31;58740;50.672;18.690;2024-02-21T02:37:27;5.67;84.79
71082;SHT31;58740;50.672;18.690;2024-02-21T02:40:00;5.66;84.81
71082;SHT31;58740;50.672;18.690;2024-02-21T02:42:34;5.66;84.80
71082;SHT31;58740;50.672;18.690;2024-02-21T02:45:08;5.67;84.80
71082;SHT31;58740;50.672;18.690;2024-02-21T02:47:43;5.66;84.80
71082;SHT31;58740;50.672;18.690;2024-02-21T02:50:17;5.66;84.80
71082;SHT31;58740;50.672;18.690;2024-02-21T02:52:50;5.67;84.80
71082;SHT31;58740;50.672;18.690;2024-02-21T02:55:24;5.65;84.80
71082;SHT31;58740;50.672;18.690;2024-02-21T02:57:58;5.66;84.83
71082;SHT31;58740;50.672;18.690;2024-02-21T03:00:31;5.65;84.86
71082;SHT31;58740;50.672;18.690;2024-02-21T03:03:05;5.65;84.89
71082;SHT31;58740;50.672;18.690;2024-02-21T03:05:39;5.66;84.91
71082;SHT31;58740;50.672;18.690;2024-02-21T03:08:12;5.66;84.91
71082;SHT31;58740;50.672;18.690;2024-02-21T03:10:45;5.66;84.92
71082;SHT31;58740;50.672;18.690;2024-02-21T03:13:18;5.68;84.95
71082;SHT31;58740;50.672;18.690;2024-02-21T03:15:52;5.67;84.92
71082;SHT31;58740;50.672;18.690;2024-02-21T03:18:25;5.67;84.94
71082;SHT31;58740;50.672;18.690;2024-02-21T03:20:58;5.68;84.91
71082;SHT31;58740;50.672;18.690;2024-02-21T03:23:32;5.66;84.97
71082;SHT31;58740;50.672;18.690;2024-02-21T03:26:05;5.66;85.04
71082;SHT31;58740;50.672;18.690;2024-02-21T03:28:39;5.65;85.07
71082;SHT31;58740;50.672;18.690;2024-02-21T03:31:14;5.64;85.13
71082;SHT31;58740;50.672;18.690;2024-02-21T03:33:47;5.64;85.19
71082;SHT31;58740;50.672;18.690;2024-02-21T03:36:21;5.64;85.17
71082;SHT31;58740;50.672;18.690;2024-02-21T03:38:55;5.64;85.12
71082;SHT31;58740;50.672;18.690;2024-02-21T03:41:28;5.64;85.10
71082;SHT31;58740;50.672;18.690;2024-02-21T03:44:02;5.64;85.10
71082;SHT31;58740;50.672;18.690;2024-02-21T03:46:35;5.65;85.10
71082;SHT31;58740;50.672;18.690;2024-02-21T03:49:08;5.65;85.10
71082;SHT31;58740;50.672;18.690;2024-02-21T03:51:42;5.64;85.12
71082;SHT31;58740;50.672;18.690;2024-02-21T03:54:15;5.66;85.20
71082;SHT31;58740;50.672;18.690;2024-02-21T03:56:48;5.66;85.18
71082;SHT31;58740;50.672;18.690;2024-02-21T03:59:21;5.66;85.16
71082;SHT31;58740;50.672;18.690;2024-02-21T04:01:55;5.68;85.09
71082;SHT31;58740;50.672;18.690;2024-02-21T04:04:28;5.67;85.10
71082;SHT31;58740;50.672;18.690;2024-02-21T04:07:02;5.68;85.10
71082;SHT31;58740;50.672;18.690;2024-02-21T04:09:36;5.68;85.10
71082;SHT31;58740;50.672;18.690;2024-02-21T04:12:09;5.68;85.09
71082;SHT31;58740;50.672;18.690;2024-02-21T04:14:42;5.69;85.12
71082;SHT31;58740;50.672;18.690;2024-02-21T04:17:15;5.69;85.10
71082;SHT31;58740;50.672;18.690;2024-02-21T04:19:49;5.69;85.10
71082;SHT31;58740;50.672;18.690;2024-02-21T04:22:31;5.68;85.09
71082;SHT31;58740;50.672;18.690;2024-02-21T04:25:05;5.68;85.10
71082;SHT31;58740;50.672;18.690;2024-02-21T04:27:39;5.67;85.11
71082;SHT31;58740;50.672;18.690;2024-02-21T04:30:13;5.68;85.10
71082;SHT31;58740;50.672;18.690;2024-02-21T04:32:47;5.68;85.09
71082;SHT31;58740;50.672;18.690;2024-02-21T04:35:20;5.70;85.10
71082;SHT31;58740;50.672;18.690;2024-02-21T04:37:53;5.69;85.09
71082;SHT31;58740;50.672;18.690;2024-02-21T04:40:27;5.68;85.10
71082;SHT31;58740;50.672;18.690;2024-02-21T04:43:00;5.68;85.10
71082;SHT31;58740;50.672;18.690;2024-02-21T04:45:34;5.69;85.10
71082;SHT31;58740;50.672;18.690;2024-02-21T04:48:07;5.69;85.08
71082;SHT31;58740;50.672;18.690;2024-02-21T04:50:40;5.68;85.10
71082;SHT31;58740;50.672;18.690;2024-02-21T04:53:13;5.69;85.03
71082;SHT31;58740;50.672;18.690;2024-02-21T04:55:47;5.70;85.00
71082;SHT31;58740;50.672;18.690;2024-02-21T04:58:20;5.69;85.00
71082;SHT31;58740;50.672;18.690;2024-02-21T05:00:54;5.69;84.97
71082;SHT31;58740;50.672;18.690;2024-02-21T05:03:28;5.68;84.97
71082;SHT31;58740;50.672;18.690;2024-02-21T05:06:01;5.67;85.01
71082;SHT31;58740;50.672;18.690;2024-02-21T05:08:36;5.66;85.01
71082;SHT31;58740;50.672;18.690;2024-02-21T05:11:10;5.66;85.06
71082;SHT31;58740;50.672;18.690;2024-02-21T05:13:43;5.67;85.06
71082;SHT31;58740;50.672;18.690;2024-02-21T05:16:16;5.68;85.07
71082;SHT31;58740;50.672;18.690;2024-02-21T05:18:50;5.66;85.10
71082;SHT31;58740;50.672;18.690;2024-02-21T05:21:23;5.66;85.10
71082;SHT31;58740;50.672;18.690;2024-02-21T05:23:57;5.66;85.10
71082;SHT31;58740;50.672;18.690;2024-02-21T05:26:30;5.66;85.10
71082;SHT31;58740;50.672;18.690;2024-02-21T05:29:03;5.68;85.03
71082;SHT31;58740;50.672;18.690;2024-02-21T05:31:55;5.66;85.10
71082;SHT31;58740;50.672;18.690;2024-02-21T05:34:28;5.67;85.10
71082;SHT31;58740;50.672;18.690;2024-02-21T05:37:02;5.67;85.07
71082;SHT31;58740;50.672;18.690;2024-02-21T05:39:36;5.67;85.10
71082;SHT31;58740;50.672;18.690;2024-02-21T05:42:09;5.68;85.10
71082;SHT31;58740;50.672;18.690;2024-02-21T05:44:42;5.66;85.10
71082;SHT31;58740;50.672;18.690;2024-02-21T05:47:15;5.65;85.12
71082;SHT31;58740;50.672;18.690;2024-02-21T05:49:49;5.64;85.20
71082;SHT31;58740;50.672;18.690;2024-02-21T05:52:23;5.63;85.25
71082;SHT31;58740;50.672;18.690;2024-02-21T05:54:56;5.63;85.26
71082;SHT31;58740;50.672;18.690;2024-02-21T05:57:30;5.63;85.29
71082;SHT31;58740;50.672;18.690;2024-02-21T06:00:04;5.61;85.31
71082;SHT31;58740;50.672;18.690;2024-02-21T06:02:39;5.61;85.33
71082;SHT31;58740;50.672;18.690;2024-02-21T06:05:13;5.61;85.38
71082;SHT31;58740;50.672;18.690;2024-02-21T06:07:46;5.62;85.31
71082;SHT31;58740;50.672;18.690;2024-02-21T06:10:20;5.63;85.32
71082;SHT31;58740;50.672;18.690;2024-02-21T06:12:53;5.63;85.35
71082;SHT31;58740;50.672;18.690;2024-02-21T06:15:26;5.65;85.37
71082;SHT31;58740;50.672;18.690;2024-02-21T06:18:00;5.66;85.31
71082;SHT31;58740;50.672;18.690;2024-02-21T06:20:34;5.67;85.32
71082;SHT31;58740;50.672;18.690;2024-02-21T06:23:09;5.67;85.30
71082;SHT31;58740;50.672;18.690;2024-02-21T06:25:44;5.68;85.22
71082;SHT31;58740;50.672;18.690;2024-02-21T06:28:17;5.69;85.23
71082;SHT31;58740;50.672;18.690;2024-02-21T06:30:50;5.69;85.25
71082;SHT31;58740;50.672;18.690;2024-02-21T06:33:24;5.67;85.30
71082;SHT31;58740;50.672;18.690;2024-02-21T06:35:57;5.70;85.30
71082;SHT31;58740;50.672;18.690;2024-02-21T06:38:30;5.71;85.29
71082;SHT31;58740;50.672;18.690;2024-02-21T06:41:04;5.72;85.29
71082;SHT31;58740;50.672;18.690;2024-02-21T06:43:44;5.72;85.20
71082;SHT31;58740;50.672;18.690;2024-02-21T06:46:24;5.73;85.14
71082;SHT31;58740;50.672;18.690;2024-02-21T06:48:59;5.72;85.15
71082;SHT31;58740;50.672;18.690;2024-02-21T06:51:33;5.73;85.12
71082;SHT31;58740;50.672;18.690;2024-02-21T06:54:06;5.74;85.18
71082;SHT31;58740;50.672;18.690;2024-02-21T06:56:40;5.75;85.20
71082;SHT31;58740;50.672;18.690;2024-02-21T06:59:13;5.75;85.20
71082;SHT31;58740;50.672;18.690;2024-02-21T07:01:47;5.75;85.20
71082;SHT31;58740;50.672;18.690;2024-02-21T07:04:24;5.77;85.17
71082;SHT31;58740;50.672;18.690;2024-02-21T07:06:58;5.78;85.16
71082;SHT31;58740;50.672;18.690;2024-02-21T07:09:32;5.78;85.20
71082;SHT31;58740;50.672;18.690;2024-02-21T07:12:05;5.77;85.21
71082;SHT31;58740;50.672;18.690;2024-02-21T07:14:39;5.78;85.16
71082;SHT31;58740;50.672;18.690;2024-02-21T07:17:12;5.78;85.08
71082;SHT31;58740;50.672;18.690;2024-02-21T07:19:45;5.79;85.00
71082;SHT31;58740;50.672;18.690;2024-02-21T07:22:18;5.79;85.00
71082;SHT31;58740;50.672;18.690;2024-02-21T07:24:52;5.78;85.01
71082;SHT31;58740;50.672;18.690;2024-02-21T07:27:25;5.78;85.04
71082;SHT31;58740;50.672;18.690;2024-02-21T07:30:00;5.80;85.02
71082;SHT31;58740;50.672;18.690;2024-02-21T07:32:34;5.81;85.01
71082;SHT31;58740;50.672;18.690;2024-02-21T07:35:07;5.82;85.05
71082;SHT31;58740;50.672;18.690;2024-02-21T07:37:41;5.84;85.16
71082;SHT31;58740;50.672;18.690;2024-02-21T07:40:15;5.86;85.14
71082;SHT31;58740;50.672;18.690;2024-02-21T07:42:49;5.88;85.13
71082;SHT31;58740;50.672;18.690;2024-02-21T07:45:22;5.90;85.09
71082;SHT31;58740;50.672;18.690;2024-02-21T07:47:56;5.92;85.01
71082;SHT31;58740;50.672;18.690;2024-02-21T07:50:29;5.93;85.00
71082;SHT31;58740;50.672;18.690;2024-02-21T07:53:02;5.94;85.05
71082;SHT31;58740;50.672;18.690;2024-02-21T07:55:36;5.94;85.11
71082;SHT31;58740;50.672;18.690;2024-02-21T07:58:09;5.95;85.07
71082;SHT31;58740;50.672;18.690;2024-02-21T08:00:42;5.96;84.92
71082;SHT31;58740;50.672;18.690;2024-02-21T08:03:15;5.98;84.88
71082;SHT31;58740;50.672;18.690;2024-02-21T08:05:49;6.01;84.94
71082;SHT31;58740;50.672;18.690;2024-02-21T08:08:23;6.05;84.89
71082;SHT31;58740;50.672;18.690;2024-02-21T08:10:56;6.08;84.91
71082;SHT31;58740;50.672;18.690;2024-02-21T08:13:29;6.10;84.90
71082;SHT31;58740;50.672;18.690;2024-02-21T08:16:03;6.14;84.90
71082;SHT31;58740;50.672;18.690;2024-02-21T08:18:37;6.17;84.83
71082;SHT31;58740;50.672;18.690;2024-02-21T08:21:13;6.20;84.78
71082;SHT31;58740;50.672;18.690;2024-02-21T08:23:46;6.24;84.75
71082;SHT31;58740;50.672;18.690;2024-02-21T08:26:20;6.28;84.77
71082;SHT31;58740;50.672;18.690;2024-02-21T08:28:56;6.35;84.83
71082;SHT31;58740;50.672;18.690;2024-02-21T08:31:30;6.41;84.69
71082;SHT31;58740;50.672;18.690;2024-02-21T08:34:03;6.44;84.64
71082;SHT31;58740;50.672;18.690;2024-02-21T08:36:37;6.48;84.58
71082;SHT31;58740;50.672;18.690;2024-02-21T08:39:10;6.52;84.53
71082;SHT31;58740;50.672;18.690;2024-02-21T08:41:46;6.57;84.58
71082;SHT31;58740;50.672;18.690;2024-02-21T08:44:27;6.63;84.43
71082;SHT31;58740;50.672;18.690;2024-02-21T08:47:01;6.69;84.36
71082;SHT31;58740;50.672;18.690;2024-02-21T08:49:37;6.75;84.33
71082;SHT31;58740;50.672;18.690;2024-02-21T08:52:10;6.81;84.36
71082;SHT31;58740;50.672;18.690;2024-02-21T08:54:43;6.86;84.19
71082;SHT31;58740;50.672;18.690;2024-02-21T08:57:16;6.93;84.17
71082;SHT31;58740;50.672;18.690;2024-02-21T08:59:50;6.99;84.13
71082;SHT31;58740;50.672;18.690;2024-02-21T09:02:23;7.04;84.07
71082;SHT31;58740;50.672;18.690;2024-02-21T09:04:56;7.08;83.87
71082;SHT31;58740;50.672;18.690;2024-02-21T09:07:30;7.12;83.72
71082;SHT31;58740;50.672;18.690;2024-02-21T09:10:03;7.16;83.65
71082;SHT31;58740;50.672;18.690;2024-02-21T09:12:39;7.20;83.61
71082;SHT31;58740;50.672;18.690;2024-02-21T09:15:12;7.26;83.55
71082;SHT31;58740;50.672;18.690;2024-02-21T09:17:46;7.33;83.54
71082;SHT31;58740;50.672;18.690;2024-02-21T09:20:19;7.41;83.40
71082;SHT31;58740;50.672;18.690;2024-02-21T09:22:53;7.46;83.28
71082;SHT31;58740;50.672;18.690;2024-02-21T09:25:26;7.49;83.10
71082;SHT31;58740;50.672;18.690;2024-02-21T09:28:00;7.52;82.90
71082;SHT31;58740;50.672;18.690;2024-02-21T09:30:36;7.56;82.89
71082;SHT31;58740;50.672;18.690;2024-02-21T09:33:09;7.59;82.84
71082;SHT31;58740;50.672;18.690;2024-02-21T09:35:54;7.62;82.48
71082;SHT31;58740;50.672;18.690;2024-02-21T09:38:27;7.65;82.49
71082;SHT31;58740;50.672;18.690;2024-02-21T09:41:03;7.72;82.53
71082;SHT31;58740;50.672;18.690;2024-02-21T09:43:49;7.82;82.56
71082;SHT31;58740;50.672;18.690;2024-02-21T09:46:36;7.90;82.21
71082;SHT31;58740;50.672;18.690;2024-02-21T09:49:25;7.95;81.90
71082;SHT31;58740;50.672;18.690;2024-02-21T09:52:05;8.01;81.92
71082;SHT31;58740;50.672;18.690;2024-02-21T09:54:40;8.06;81.90
71082;SHT31;58740;50.672;18.690;2024-02-21T09:57:14;8.08;81.65
71082;SHT31;58740;50.672;18.690;2024-02-21T09:59:48;8.08;81.23
71082;SHT31;58740;50.672;18.690;2024-02-21T10:02:25;8.06;80.71
71082;SHT31;58740;50.672;18.690;2024-02-21T10:04:58;8.05;80.69
71082;SHT31;58740;50.672;18.690;2024-02-21T10:07:33;8.03;80.59
71082;SHT31;58740;50.672;18.690;2024-02-21T10:10:09;8.02;80.54
71082;SHT31;58740;50.672;18.690;2024-02-21T10:12:49;8.00;80.36
71082;SHT31;58740;50.672;18.690;2024-02-21T10:15:24;7.97;80.15
71082;SHT31;58740;50.672;18.690;2024-02-21T10:18:00;7.96;80.23
71082;SHT31;58740;50.672;18.690;2024-02-21T10:20:35;7.95;80.20
71082;SHT31;58740;50.672;18.690;2024-02-21T10:23:08;7.95;80.25
71082;SHT31;58740;50.672;18.690;2024-02-21T10:25:42;7.96;80.10
71082;SHT31;58740;50.672;18.690;2024-02-21T10:28:16;7.97;80.19
71082;SHT31;58740;50.672;18.690;2024-02-21T10:30:52;7.98;80.10
71082;SHT31;58740;50.672;18.690;2024-02-21T10:33:26;8.01;80.15
71082;SHT31;58740;50.672;18.690;2024-02-21T10:36:08;8.03;80.13
71082;SHT31;58740;50.672;18.690;2024-02-21T10:38:43;8.04;79.91
71082;SHT31;58740;50.672;18.690;2024-02-21T10:41:16;8.05;79.72
71082;SHT31;58740;50.672;18.690;2024-02-21T10:43:54;8.07;79.71
71082;SHT31;58740;50.672;18.690;2024-02-21T10:46:29;8.09;79.40
71082;SHT31;58740;50.672;18.690;2024-02-21T10:49:06;8.09;79.46
71082;SHT31;58740;50.672;18.690;2024-02-21T10:51:46;8.10;79.33
71082;SHT31;58740;50.672;18.690;2024-02-21T10:54:28;8.10;79.18
71082;SHT31;58740;50.672;18.690;2024-02-21T10:57:15;8.09;79.08
71082;SHT31;58740;50.672;18.690;2024-02-21T10:59:49;8.07;79.27
71082;SHT31;58740;50.672;18.690;2024-02-21T11:02:24;8.06;79.52
71082;SHT31;58740;50.672;18.690;2024-02-21T11:05:00;8.05;79.83
71082;SHT31;58740;50.672;18.690;2024-02-21T11:07:37;8.05;79.97
71082;SHT31;58740;50.672;18.690;2024-02-21T11:10:22;8.02;79.92
71082;SHT31;58740;50.672;18.690;2024-02-21T11:13:06;7.97;80.03
71082;SHT31;58740;50.672;18.690;2024-02-21T11:15:43;7.95;80.13
71082;SHT31;58740;50.672;18.690;2024-02-21T11:18:24;7.93;80.15
71082;SHT31;58740;50.672;18.690;2024-02-21T11:20:57;7.91;80.29
71082;SHT31;58740;50.672;18.690;2024-02-21T11:23:31;7.90;80.33
71082;SHT31;58740;50.672;18.690;2024-02-21T11:26:05;7.89;80.46
71082;SHT31;58740;50.672;18.690;2024-02-21T11:28:40;7.88;80.50
71082;SHT31;58740;50.672;18.690;2024-02-21T11:31:14;7.86;80.64
71082;SHT31;58740;50.672;18.690;2024-02-21T11:33:48;7.85;80.69
71082;SHT31;58740;50.672;18.690;2024-02-21T11:36:26;7.84;80.76
71082;SHT31;58740;50.672;18.690;2024-02-21T11:39:04;7.82;80.73
71082;SHT31;58740;50.672;18.690;2024-02-21T11:41:38;7.82;80.80
71082;SHT31;58740;50.672;18.690;2024-02-21T11:44:12;7.82;80.88
71082;SHT31;58740;50.672;18.690;2024-02-21T11:46:45;7.82;81.02
71082;SHT31;58740;50.672;18.690;2024-02-21T11:49:20;7.81;81.16
71082;SHT31;58740;50.672;18.690;2024-02-21T11:52:00;7.79;81.34
71082;SHT31;58740;50.672;18.690;2024-02-21T11:54:34;7.79;81.36
71082;SHT31;58740;50.672;18.690;2024-02-21T11:57:08;7.78;81.57
71082;SHT31;58740;50.672;18.690;2024-02-21T11:59:41;7.79;81.77
71082;SHT31;58740;50.672;18.690;2024-02-21T12:02:17;7.80;81.97
71082;SHT31;58740;50.672;18.690;2024-02-21T12:04:51;7.81;82.04
71082;SHT31;58740;50.672;18.690;2024-02-21T12:07:24;7.82;82.24
71082;SHT31;58740;50.672;18.690;2024-02-21T12:10:00;7.82;82.46
71082;SHT31;58740;50.672;18.690;2024-02-21T12:12:36;7.84;82.38
71082;SHT31;58740;50.672;18.690;2024-02-21T12:15:10;7.83;82.48
71082;SHT31;58740;50.672;18.690;2024-02-21T12:17:43;7.83;82.56
71082;SHT31;58740;50.672;18.690;2024-02-21T12:20:16;7.83;82.67
71082;SHT31;58740;50.672;18.690;2024-02-21T12:22:50;7.84;82.60
71082;SHT31;58740;50.672;18.690;2024-02-21T12:25:24;7.84;82.62
71082;SHT31;58740;50.672;18.690;2024-02-21T12:27:58;7.83;82.60
71082;SHT31;58740;50.672;18.690;2024-02-21T12:30:33;7.83;82.55
71082;SHT31;58740;50.672;18.690;2024-02-21T12:33:08;7.84;82.60
71082;SHT31;58740;50.672;18.690;2024-02-21T12:35:43;7.84;82.47
71082;SHT31;58740;50.672;18.690;2024-02-21T12:38:18;7.84;82.37
71082;SHT31;58740;50.672;18.690;2024-02-21T12:40:51;7.84;82.47
71082;SHT31;58740;50.672;18.690;2024-02-21T12:43:26;7.85;82.48
71082;SHT31;58740;50.672;18.690;2024-02-21T12:45:59;7.86;82.46
71082;SHT31;58740;50.672;18.690;2024-02-21T12:48:32;7.84;82.37
71082;SHT31;58740;50.672;18.690;2024-02-21T12:51:06;7.83;82.51
71082;SHT31;58740;50.672;18.690;2024-02-21T12:53:40;7.83;82.53
71082;SHT31;58740;50.672;18.690;2024-02-21T12:56:13;7.82;82.75
71082;SHT31;58740;50.672;18.690;2024-02-21T12:58:47;7.82;82.77
71082;SHT31;58740;50.672;18.690;2024-02-21T13:01:20;7.83;82.78
71082;SHT31;58740;50.672;18.690;2024-02-21T13:03:55;7.84;82.88
71082;SHT31;58740;50.672;18.690;2024-02-21T13:06:30;7.85;82.84
71082;SHT31;58740;50.672;18.690;2024-02-21T13:09:04;7.87;82.91
71082;SHT31;58740;50.672;18.690;2024-02-21T13:11:40;7.86;82.95
71082;SHT31;58740;50.672;18.690;2024-02-21T13:14:15;7.87;82.81
71082;SHT31;58740;50.672;18.690;2024-02-21T13:16:48;7.87;82.74
71082;SHT31;58740;50.672;18.690;2024-02-21T13:19:22;7.85;82.70
71082;SHT31;58740;50.672;18.690;2024-02-21T13:21:56;7.83;82.70
71082;SHT31;58740;50.672;18.690;2024-02-21T13:24:29;7.82;82.81
71082;SHT31;58740;50.672;18.690;2024-02-21T13:27:03;7.80;82.94
71082;SHT31;58740;50.672;18.690;2024-02-21T13:29:36;7.79;82.95
71082;SHT31;58740;50.672;18.690;2024-02-21T13:32:09;7.79;82.95
71082;SHT31;58740;50.672;18.690;2024-02-21T13:34:44;7.79;83.04
71082;SHT31;58740;50.672;18.690;2024-02-21T13:37:18;7.80;83.18
71082;SHT31;58740;50.672;18.690;2024-02-21T13:39:51;7.83;83.18
71082;SHT31;58740;50.672;18.690;2024-02-21T13:42:24;7.85;83.07
71082;SHT31;58740;50.672;18.690;2024-02-21T13:44:58;7.86;83.19
71082;SHT31;58740;50.672;18.690;2024-02-21T13:47:34;7.85;83.06
71082;SHT31;58740;50.672;18.690;2024-02-21T13:50:08;7.84;82.99
71082;SHT31;58740;50.672;18.690;2024-02-21T13:52:43;7.83;83.17
71082;SHT31;58740;50.672;18.690;2024-02-21T13:55:16;7.84;83.28
71082;SHT31;58740;50.672;18.690;2024-02-21T13:57:51;7.84;83.13
71082;SHT31;58740;50.672;18.690;2024-02-21T14:00:24;7.84;83.18
71082;SHT31;58740;50.672;18.690;2024-02-21T14:02:58;7.83;83.16
71082;SHT31;58740;50.672;18.690;2024-02-21T14:05:31;7.83;83.30
71082;SHT31;58740;50.672;18.690;2024-02-21T14:08:07;7.83;83.28
71082;SHT31;58740;50.672;18.690;2024-02-21T14:10:41;7.82;83.28
71082;SHT31;58740;50.672;18.690;2024-02-21T14:13:15;7.81;83.35
71082;SHT31;58740;50.672;18.690;2024-02-21T14:15:49;7.80;83.40
71082;SHT31;58740;50.672;18.690;2024-02-21T14:18:25;7.81;83.44
71082;SHT31;58740;50.672;18.690;2024-02-21T14:20:59;7.80;83.54
71082;SHT31;58740;50.672;18.690;2024-02-21T14:23:33;7.80;83.66
71082;SHT31;58740;50.672;18.690;2024-02-21T14:26:07;7.83;83.67
71082;SHT31;58740;50.672;18.690;2024-02-21T14:28:41;7.82;83.60
71082;SHT31;58740;50.672;18.690;2024-02-21T14:31:15;7.83;83.55
71082;SHT31;58740;50.672;18.690;2024-02-21T14:33:49;7.82;83.46
71082;SHT31;58740;50.672;18.690;2024-02-21T14:36:22;7.82;83.50
71082;SHT31;58740;50.672;18.690;2024-02-21T14:38:56;7.82;83.50
71082;SHT31;58740;50.672;18.690;2024-02-21T14:41:31;7.83;83.42
71082;SHT31;58740;50.672;18.690;2024-02-21T14:44:05;7.83;83.37
71082;SHT31;58740;50.672;18.690;2024-02-21T14:46:39;7.84;83.27
71082;SHT31;58740;50.672;18.690;2024-02-21T14:49:14;7.84;83.16
71082;SHT31;58740;50.672;18.690;2024-02-21T14:51:49;7.84;83.03
71082;SHT31;58740;50.672;18.690;2024-02-21T14:54:23;7.85;83.04
71082;SHT31;58740;50.672;18.690;2024-02-21T14:56:56;7.84;82.93
71082;SHT31;58740;50.672;18.690;2024-02-21T14:59:30;7.84;82.81
71082;SHT31;58740;50.672;18.690;2024-02-21T15:02:03;7.85;82.79
71082;SHT31;58740;50.672;18.690;2024-02-21T15:04:38;7.84;82.89
71082;SHT31;58740;50.672;18.690;2024-02-21T15:07:12;7.86;82.73
71082;SHT31;58740;50.672;18.690;2024-02-21T15:09:46;7.86;82.69
71082;SHT31;58740;50.672;18.690;2024-02-21T15:12:19;7.85;82.57
71082;SHT31;58740;50.672;18.690;2024-02-21T15:14:53;7.86;82.67
71082;SHT31;58740;50.672;18.690;2024-02-21T15:17:26;7.86;82.70
71082;SHT31;58740;50.672;18.690;2024-02-21T15:19:59;7.86;82.49
71082;SHT31;58740;50.672;18.690;2024-02-21T15:22:36;7.85;82.37
71082;SHT31;58740;50.672;18.690;2024-02-21T15:25:09;7.84;82.38
71082;SHT31;58740;50.672;18.690;2024-02-21T15:27:44;7.83;82.40
71082;SHT31;58740;50.672;18.690;2024-02-21T15:30:18;7.82;82.31
71082;SHT31;58740;50.672;18.690;2024-02-21T15:32:52;7.80;82.20
71082;SHT31;58740;50.672;18.690;2024-02-21T15:35:27;7.78;82.04
71082;SHT31;58740;50.672;18.690;2024-02-21T15:38:01;7.77;81.94
71082;SHT31;58740;50.672;18.690;2024-02-21T15:40:36;7.75;81.79
71082;SHT31;58740;50.672;18.690;2024-02-21T15:43:10;7.73;81.80
71082;SHT31;58740;50.672;18.690;2024-02-21T15:45:43;7.72;81.86
71082;SHT31;58740;50.672;18.690;2024-02-21T15:48:16;7.71;81.98
71082;SHT31;58740;50.672;18.690;2024-02-21T15:50:54;7.71;81.94
71082;SHT31;58740;50.672;18.690;2024-02-21T15:53:29;7.70;81.95
71082;SHT31;58740;50.672;18.690;2024-02-21T15:56:02;7.70;81.97
71082;SHT31;58740;50.672;18.690;2024-02-21T15:58:36;7.70;81.83
71082;SHT31;58740;50.672;18.690;2024-02-21T16:01:10;7.69;81.88
71082;SHT31;58740;50.672;18.690;2024-02-21T16:03:44;7.68;82.00
71082;SHT31;58740;50.672;18.690;2024-02-21T16:06:17;7.66;81.96
71082;SHT31;58740;50.672;18.690;2024-02-21T16:11:54;7.65;81.75
71082;SHT31;58740;50.672;18.690;2024-02-21T16:14:27;7.63;81.86
71082;SHT31;58740;50.672;18.690;2024-02-21T16:17:00;7.62;81.85